LIBP/PSR METAR and TAF weather

Enter ICAO airport designator
Station Type Date Time Source
LIBP METAR 2020/01/23 20:50 UTC NOAA

LIBP 232050Z 23002KT 5000 BR NSC 03/02 Q1029


Station Type Date Time Source
LIBP Decoded METAR 2020/01/23 20:50 UTC NOAA

Pescara, Italy (LIBP) 42-26N 014-12E 11M
Jan 23, 2020 - 03:50 PM EST / 2020.01.23 2050 UTC
Wind: from the SW (230 degrees) at 2 MPH (2 KT):0
Visibility: 3 mile(s):0
Weather: mist
Temperature: 37 F (3 C)
Dew Point: 35 F (2 C)
Relative Humidity: 93%
Pressure (altimeter): 30.39 in. Hg (1029 hPa)
ob: LIBP 232050Z 23002KT 5000 BR NSC 03/02 Q1029
cycle: 21

Station Type Date Time Source
LIBP TAF 2020/01/23 18:21 UTC NOAA

TAF LIBP 231700Z 2318/2418 VRB05KT CAVOK

Example: see airport list